sensor_id;sensor_type;location;lat;lon;timestamp;temperature;humidity
12557;DHT22;6344;49.932;8.308;2022-09-27T00:01:10;10.60;99.90
12557;DHT22;6344;49.932;8.308;2022-09-27T00:03:39;10.60;99.90
12557;DHT22;6344;49.932;8.308;2022-09-27T00:06:07;10.60;99.90
12557;DHT22;6344;49.932;8.308;2022-09-27T00:08:36;10.60;99.90
12557;DHT22;6344;49.932;8.308;2022-09-27T00:11:05;10.60;99.90
12557;DHT22;6344;49.932;8.308;2022-09-27T00:13:33;10.50;99.90
12557;DHT22;6344;49.932;8.308;2022-09-27T00:16:01;10.50;99.90
12557;DHT22;6344;49.932;8.308;2022-09-27T00:18:30;10.50;99.90
12557;DHT22;6344;49.932;8.308;2022-09-27T00:21:06;10.50;99.90
12557;DHT22;6344;49.932;8.308;2022-09-27T00:23:33;10.50;99.90
12557;DHT22;6344;49.932;8.308;2022-09-27T00:26:00;10.40;99.90
12557;DHT22;6344;49.932;8.308;2022-09-27T00:28:27;10.40;99.90
12557;DHT22;6344;49.932;8.308;2022-09-27T00:30:54;10.40;99.90
12557;DHT22;6344;49.932;8.308;2022-09-27T00:33:20;10.40;99.90
12557;DHT22;6344;49.932;8.308;2022-09-27T00:35:47;10.50;99.90
12557;DHT22;6344;49.932;8.308;2022-09-27T00:38:15;10.40;99.90
12557;DHT22;6344;49.932;8.308;2022-09-27T00:40:42;10.30;99.90
12557;DHT22;6344;49.932;8.308;2022-09-27T00:43:15;10.40;99.90
12557;DHT22;6344;49.932;8.308;2022-09-27T00:45:45;10.40;99.90
12557;DHT22;6344;49.932;8.308;2022-09-27T00:48:15;10.40;99.90
12557;DHT22;6344;49.932;8.308;2022-09-27T00:50:44;10.50;99.90
12557;DHT22;6344;49.932;8.308;2022-09-27T00:53:17;10.40;99.90
12557;DHT22;6344;49.932;8.308;2022-09-27T00:55:49;10.40;99.90
12557;DHT22;6344;49.932;8.308;2022-09-27T00:58:20;10.40;99.90
12557;DHT22;6344;49.932;8.308;2022-09-27T01:00:51;10.50;99.90
12557;DHT22;6344;49.932;8.308;2022-09-27T01:03:25;10.50;99.90
12557;DHT22;6344;49.932;8.308;2022-09-27T01:05:54;10.50;99.90
12557;DHT22;6344;49.932;8.308;2022-09-27T01:08:22;10.40;99.90
12557;DHT22;6344;49.932;8.308;2022-09-27T01:10:56;10.40;99.90
12557;DHT22;6344;49.932;8.308;2022-09-27T01:13:30;10.40;99.90
12557;DHT22;6344;49.932;8.308;2022-09-27T01:16:05;10.40;99.90
12557;DHT22;6344;49.932;8.308;2022-09-27T01:18:37;10.40;99.90
12557;DHT22;6344;49.932;8.308;2022-09-27T01:21:29;10.40;99.90
12557;DHT22;6344;49.932;8.308;2022-09-27T01:24:28;10.40;99.90
12557;DHT22;6344;49.932;8.308;2022-09-27T01:27:39;10.40;99.90
12557;DHT22;6344;49.932;8.308;2022-09-27T01:30:17;10.40;99.90
12557;DHT22;6344;49.932;8.308;2022-09-27T01:32:50;10.30;99.90
12557;DHT22;6344;49.932;8.308;2022-09-27T01:35:23;10.40;99.90
12557;DHT22;6344;49.932;8.308;2022-09-27T01:38:00;10.30;99.90
12557;DHT22;6344;49.932;8.308;2022-09-27T01:40:39;10.40;99.90
12557;DHT22;6344;49.932;8.308;2022-09-27T01:43:12;10.40;99.90
12557;DHT22;6344;49.932;8.308;2022-09-27T01:45:44;10.30;99.90
12557;DHT22;6344;49.932;8.308;2022-09-27T01:48:17;10.40;99.90
12557;DHT22;6344;49.932;8.308;2022-09-27T01:50:48;10.30;99.90
12557;DHT22;6344;49.932;8.308;2022-09-27T01:53:19;10.40;99.90
12557;DHT22;6344;49.932;8.308;2022-09-27T01:55:48;10.40;99.90
12557;DHT22;6344;49.932;8.308;2022-09-27T01:58:19;10.30;99.90
12557;DHT22;6344;49.932;8.308;2022-09-27T02:00:50;10.40;99.90
12557;DHT22;6344;49.932;8.308;2022-09-27T02:03:20;10.40;99.90
12557;DHT22;6344;49.932;8.308;2022-09-27T02:05:54;10.30;99.90
12557;DHT22;6344;49.932;8.308;2022-09-27T02:08:26;10.30;99.90
12557;DHT22;6344;49.932;8.308;2022-09-27T02:10:57;10.30;99.90
12557;DHT22;6344;49.932;8.308;2022-09-27T02:13:32;10.30;99.90
12557;DHT22;6344;49.932;8.308;2022-09-27T02:16:08;10.30;99.90
12557;DHT22;6344;49.932;8.308;2022-09-27T02:18:49;10.30;99.90
12557;DHT22;6344;49.932;8.308;2022-09-27T02:21:18;10.30;99.90
12557;DHT22;6344;49.932;8.308;2022-09-27T02:23:49;10.30;99.90
12557;DHT22;6344;49.932;8.308;2022-09-27T02:26:21;10.20;99.90
12557;DHT22;6344;49.932;8.308;2022-09-27T02:28:53;10.30;99.90
12557;DHT22;6344;49.932;8.308;2022-09-27T02:31:24;10.20;99.90
12557;DHT22;6344;49.932;8.308;2022-09-27T02:33:54;10.20;99.90
12557;DHT22;6344;49.932;8.308;2022-09-27T02:36:22;10.20;99.90
12557;DHT22;6344;49.932;8.308;2022-09-27T02:38:49;10.10;99.90
12557;DHT22;6344;49.932;8.308;2022-09-27T02:41:16;10.10;99.90
12557;DHT22;6344;49.932;8.308;2022-09-27T02:43:45;10.10;99.90
12557;DHT22;6344;49.932;8.308;2022-09-27T02:46:29;10.00;99.90
12557;DHT22;6344;49.932;8.308;2022-09-27T02:49:05;10.00;99.90
12557;DHT22;6344;49.932;8.308;2022-09-27T02:51:49;10.10;99.90
12557;DHT22;6344;49.932;8.308;2022-09-27T02:54:25;10.10;99.90
12557;DHT22;6344;49.932;8.308;2022-09-27T02:57:02;10.10;99.90
12557;DHT22;6344;49.932;8.308;2022-09-27T02:59:40;10.10;99.90
12557;DHT22;6344;49.932;8.308;2022-09-27T03:02:16;10.10;99.90
12557;DHT22;6344;49.932;8.308;2022-09-27T03:04:46;10.10;99.90
12557;DHT22;6344;49.932;8.308;2022-09-27T03:07:14;10.10;99.90
12557;DHT22;6344;49.932;8.308;2022-09-27T03:09:44;10.20;99.90
12557;DHT22;6344;49.932;8.308;2022-09-27T03:12:13;10.20;99.90
12557;DHT22;6344;49.932;8.308;2022-09-27T03:14:40;10.20;99.90
12557;DHT22;6344;49.932;8.308;2022-09-27T03:17:06;10.30;99.90
12557;DHT22;6344;49.932;8.308;2022-09-27T03:19:34;10.20;99.90
12557;DHT22;6344;49.932;8.308;2022-09-27T03:22:01;10.20;99.90
12557;DHT22;6344;49.932;8.308;2022-09-27T03:24:28;10.10;99.90
12557;DHT22;6344;49.932;8.308;2022-09-27T03:26:54;10.10;99.90
12557;DHT22;6344;49.932;8.308;2022-09-27T03:29:21;10.00;99.90
12557;DHT22;6344;49.932;8.308;2022-09-27T03:31:48;10.00;99.90
12557;DHT22;6344;49.932;8.308;2022-09-27T03:34:14;9.90;99.90
12557;DHT22;6344;49.932;8.308;2022-09-27T03:36:42;9.90;99.90
12557;DHT22;6344;49.932;8.308;2022-09-27T03:39:09;9.80;99.90
12557;DHT22;6344;49.932;8.308;2022-09-27T03:41:36;9.80;99.90
12557;DHT22;6344;49.932;8.308;2022-09-27T03:44:03;9.70;99.90
12557;DHT22;6344;49.932;8.308;2022-09-27T03:46:30;9.70;99.90
12557;DHT22;6344;49.932;8.308;2022-09-27T03:48:57;9.60;99.90
12557;DHT22;6344;49.932;8.308;2022-09-27T03:51:23;9.60;99.90
12557;DHT22;6344;49.932;8.308;2022-09-27T03:53:51;9.50;99.90
12557;DHT22;6344;49.932;8.308;2022-09-27T03:56:18;9.50;99.90
12557;DHT22;6344;49.932;8.308;2022-09-27T03:58:45;9.50;99.90
12557;DHT22;6344;49.932;8.308;2022-09-27T04:01:12;9.40;99.90
12557;DHT22;6344;49.932;8.308;2022-09-27T04:03:38;9.40;99.90
12557;DHT22;6344;49.932;8.308;2022-09-27T04:06:06;9.40;99.90
12557;DHT22;6344;49.932;8.308;2022-09-27T04:08:32;9.30;99.90
12557;DHT22;6344;49.932;8.308;2022-09-27T04:11:01;9.40;99.90
12557;DHT22;6344;49.932;8.308;2022-09-27T04:13:28;9.30;99.90
12557;DHT22;6344;49.932;8.308;2022-09-27T04:15:54;9.30;99.90
12557;DHT22;6344;49.932;8.308;2022-09-27T04:18:21;9.20;99.90
12557;DHT22;6344;49.932;8.308;2022-09-27T04:20:48;9.20;99.90
12557;DHT22;6344;49.932;8.308;2022-09-27T04:23:14;9.10;99.90
12557;DHT22;6344;49.932;8.308;2022-09-27T04:25:41;9.10;99.90
12557;DHT22;6344;49.932;8.308;2022-09-27T04:28:09;9.10;99.90
12557;DHT22;6344;49.932;8.308;2022-09-27T04:30:36;9.10;99.90
12557;DHT22;6344;49.932;8.308;2022-09-27T04:33:03;9.10;99.90
12557;DHT22;6344;49.932;8.308;2022-09-27T04:35:30;9.10;99.90
12557;DHT22;6344;49.932;8.308;2022-09-27T04:38:14;9.10;99.90
12557;DHT22;6344;49.932;8.308;2022-09-27T04:40:41;9.10;99.90
12557;DHT22;6344;49.932;8.308;2022-09-27T04:43:10;9.10;99.90
12557;DHT22;6344;49.932;8.308;2022-09-27T04:45:37;9.10;99.90
12557;DHT22;6344;49.932;8.308;2022-09-27T04:48:04;9.10;99.90
12557;DHT22;6344;49.932;8.308;2022-09-27T04:50:30;9.10;99.90
12557;DHT22;6344;49.932;8.308;2022-09-27T04:52:57;9.20;99.90
12557;DHT22;6344;49.932;8.308;2022-09-27T04:55:24;9.20;99.90
12557;DHT22;6344;49.932;8.308;2022-09-27T04:57:52;9.20;99.90
12557;DHT22;6344;49.932;8.308;2022-09-27T05:00:20;9.20;99.90
12557;DHT22;6344;49.932;8.308;2022-09-27T05:02:47;9.20;99.90
12557;DHT22;6344;49.932;8.308;2022-09-27T05:05:14;9.10;99.90
12557;DHT22;6344;49.932;8.308;2022-09-27T05:07:41;9.10;99.90
12557;DHT22;6344;49.932;8.308;2022-09-27T05:10:08;9.10;99.90
12557;DHT22;6344;49.932;8.308;2022-09-27T05:12:35;9.10;99.90
12557;DHT22;6344;49.932;8.308;2022-09-27T05:15:03;9.10;99.90
12557;DHT22;6344;49.932;8.308;2022-09-27T05:17:31;9.10;99.90
12557;DHT22;6344;49.932;8.308;2022-09-27T05:19:58;9.10;99.90
12557;DHT22;6344;49.932;8.308;2022-09-27T05:22:25;9.10;99.90
12557;DHT22;6344;49.932;8.308;2022-09-27T05:24:52;9.10;99.90
12557;DHT22;6344;49.932;8.308;2022-09-27T05:27:18;9.20;99.90
12557;DHT22;6344;49.932;8.308;2022-09-27T05:29:45;9.10;99.90
12557;DHT22;6344;49.932;8.308;2022-09-27T05:32:13;9.20;99.90
12557;DHT22;6344;49.932;8.308;2022-09-27T05:34:41;9.20;99.90
12557;DHT22;6344;49.932;8.308;2022-09-27T05:37:08;9.20;99.90
12557;DHT22;6344;49.932;8.308;2022-09-27T05:39:35;9.30;99.90
12557;DHT22;6344;49.932;8.308;2022-09-27T05:42:01;9.30;99.90
12557;DHT22;6344;49.932;8.308;2022-09-27T05:44:29;9.40;99.90
12557;DHT22;6344;49.932;8.308;2022-09-27T05:46:56;9.40;99.90
12557;DHT22;6344;49.932;8.308;2022-09-27T05:49:23;9.40;99.90
12557;DHT22;6344;49.932;8.308;2022-09-27T05:51:51;9.40;99.90
12557;DHT22;6344;49.932;8.308;2022-09-27T05:54:18;9.40;99.90
12557;DHT22;6344;49.932;8.308;2022-09-27T05:56:44;9.50;99.90
12557;DHT22;6344;49.932;8.308;2022-09-27T05:59:11;9.50;99.90
12557;DHT22;6344;49.932;8.308;2022-09-27T06:01:38;9.50;99.90
12557;DHT22;6344;49.932;8.308;2022-09-27T06:04:04;9.50;99.90
12557;DHT22;6344;49.932;8.308;2022-09-27T06:06:34;9.60;99.90
12557;DHT22;6344;49.932;8.308;2022-09-27T06:09:02;9.50;99.90
12557;DHT22;6344;49.932;8.308;2022-09-27T06:11:29;9.60;99.90
12557;DHT22;6344;49.932;8.308;2022-09-27T06:13:56;9.60;99.90
12557;DHT22;6344;49.932;8.308;2022-09-27T06:16:23;9.60;99.90
12557;DHT22;6344;49.932;8.308;2022-09-27T06:18:49;9.70;99.90
12557;DHT22;6344;49.932;8.308;2022-09-27T06:21:16;9.70;99.90
12557;DHT22;6344;49.932;8.308;2022-09-27T06:23:43;9.70;99.90
12557;DHT22;6344;49.932;8.308;2022-09-27T06:26:11;9.80;99.90
12557;DHT22;6344;49.932;8.308;2022-09-27T06:28:38;9.90;99.90
12557;DHT22;6344;49.932;8.308;2022-09-27T06:31:05;9.90;99.90
12557;DHT22;6344;49.932;8.308;2022-09-27T06:33:34;9.90;99.90
12557;DHT22;6344;49.932;8.308;2022-09-27T06:36:01;10.00;99.90
12557;DHT22;6344;49.932;8.308;2022-09-27T06:38:28;10.00;99.90
12557;DHT22;6344;49.932;8.308;2022-09-27T06:40:55;10.00;99.90
12557;DHT22;6344;49.932;8.308;2022-09-27T06:43:24;10.00;99.90
12557;DHT22;6344;49.932;8.308;2022-09-27T06:45:52;10.00;99.90
12557;DHT22;6344;49.932;8.308;2022-09-27T06:48:19;10.10;99.90
12557;DHT22;6344;49.932;8.308;2022-09-27T06:50:47;10.10;99.90
12557;DHT22;6344;49.932;8.308;2022-09-27T06:53:15;10.10;99.90
12557;DHT22;6344;49.932;8.308;2022-09-27T06:55:42;10.20;99.90
12557;DHT22;6344;49.932;8.308;2022-09-27T06:58:10;10.20;99.90
12557;DHT22;6344;49.932;8.308;2022-09-27T07:00:56;10.30;99.90
12557;DHT22;6344;49.932;8.308;2022-09-27T07:03:24;10.20;99.90
12557;DHT22;6344;49.932;8.308;2022-09-27T07:05:58;10.20;99.90
12557;DHT22;6344;49.932;8.308;2022-09-27T07:08:25;10.20;99.90
12557;DHT22;6344;49.932;8.308;2022-09-27T07:10:53;10.30;99.90
12557;DHT22;6344;49.932;8.308;2022-09-27T07:13:20;10.40;99.90
12557;DHT22;6344;49.932;8.308;2022-09-27T07:15:47;10.40;99.90
12557;DHT22;6344;49.932;8.308;2022-09-27T07:18:15;10.40;99.90
12557;DHT22;6344;49.932;8.308;2022-09-27T07:20:42;10.40;99.90
12557;DHT22;6344;49.932;8.308;2022-09-27T07:23:09;10.40;99.90
12557;DHT22;6344;49.932;8.308;2022-09-27T07:25:36;10.50;99.90
12557;DHT22;6344;49.932;8.308;2022-09-27T07:28:05;10.60;99.90
12557;DHT22;6344;49.932;8.308;2022-09-27T07:30:33;10.70;99.90
12557;DHT22;6344;49.932;8.308;2022-09-27T07:33:01;10.80;99.90
12557;DHT22;6344;49.932;8.308;2022-09-27T07:35:30;10.80;99.90
12557;DHT22;6344;49.932;8.308;2022-09-27T07:37:57;10.80;99.90
12557;DHT22;6344;49.932;8.308;2022-09-27T07:40:25;10.90;99.90
12557;DHT22;6344;49.932;8.308;2022-09-27T07:42:55;11.00;99.90
12557;DHT22;6344;49.932;8.308;2022-09-27T07:45:22;11.10;99.90
12557;DHT22;6344;49.932;8.308;2022-09-27T07:47:49;11.10;99.90
12557;DHT22;6344;49.932;8.308;2022-09-27T07:50:16;11.10;99.90
12557;DHT22;6344;49.932;8.308;2022-09-27T07:52:46;11.50;99.90
12557;DHT22;6344;49.932;8.308;2022-09-27T07:55:14;11.80;99.90
12557;DHT22;6344;49.932;8.308;2022-09-27T07:57:41;11.90;1.00
12557;DHT22;6344;49.932;8.308;2022-09-27T08:00:11;12.40;99.90
12557;DHT22;6344;49.932;8.308;2022-09-27T08:02:39;12.30;3.40
12557;DHT22;6344;49.932;8.308;2022-09-27T08:05:07;12.10;85.30
12557;DHT22;6344;49.932;8.308;2022-09-27T08:07:34;11.80;1.00
12557;DHT22;6344;49.932;8.308;2022-09-27T08:10:02;11.80;99.90
12557;DHT22;6344;49.932;8.308;2022-09-27T08:12:29;12.00;99.90
12557;DHT22;6344;49.932;8.308;2022-09-27T08:14:55;12.10;1.00
12557;DHT22;6344;49.932;8.308;2022-09-27T08:17:26;12.30;99.90
12557;DHT22;6344;49.932;8.308;2022-09-27T08:19:52;12.20;99.90
12557;DHT22;6344;49.932;8.308;2022-09-27T08:22:19;11.90;1.00
12557;DHT22;6344;49.932;8.308;2022-09-27T08:24:47;11.70;1.00
12557;DHT22;6344;49.932;8.308;2022-09-27T08:27:15;11.60;1.00
12557;DHT22;6344;49.932;8.308;2022-09-27T08:29:42;11.60;1.00
12557;DHT22;6344;49.932;8.308;2022-09-27T08:32:09;11.70;99.90
12557;DHT22;6344;49.932;8.308;2022-09-27T08:34:36;11.90;99.90
12557;DHT22;6344;49.932;8.308;2022-09-27T08:37:03;12.10;99.90
12557;DHT22;6344;49.932;8.308;2022-09-27T08:39:30;12.10;1.00
12557;DHT22;6344;49.932;8.308;2022-09-27T08:42:03;12.50;99.90
12557;DHT22;6344;49.932;8.308;2022-09-27T08:44:39;13.00;1.00
12557;DHT22;6344;49.932;8.308;2022-09-27T08:47:12;13.60;1.00
12557;DHT22;6344;49.932;8.308;2022-09-27T08:49:44;13.80;1.00
12557;DHT22;6344;49.932;8.308;2022-09-27T08:52:17;13.70;1.00
12557;DHT22;6344;49.932;8.308;2022-09-27T08:54:45;13.40;99.90
12557;DHT22;6344;49.932;8.308;2022-09-27T08:57:13;13.70;99.90
12557;DHT22;6344;49.932;8.308;2022-09-27T08:59:46;13.70;99.90
12557;DHT22;6344;49.932;8.308;2022-09-27T09:02:17;13.90;99.90
12557;DHT22;6344;49.932;8.308;2022-09-27T09:04:46;13.90;99.90
12557;DHT22;6344;49.932;8.308;2022-09-27T09:07:29;13.80;99.90
12557;DHT22;6344;49.932;8.308;2022-09-27T09:10:05;13.60;99.90
12557;DHT22;6344;49.932;8.308;2022-09-27T09:12:45;13.50;99.90
12557;DHT22;6344;49.932;8.308;2022-09-27T09:15:24;13.60;99.90
12557;DHT22;6344;49.932;8.308;2022-09-27T09:18:10;13.80;99.90
12557;DHT22;6344;49.932;8.308;2022-09-27T09:20:53;13.80;99.90
12557;DHT22;6344;49.932;8.308;2022-09-27T09:23:38;13.80;99.90
12557;DHT22;6344;49.932;8.308;2022-09-27T09:26:12;13.70;99.90
12557;DHT22;6344;49.932;8.308;2022-09-27T09:28:53;14.10;99.90
12557;DHT22;6344;49.932;8.308;2022-09-27T09:31:31;14.40;99.90
12557;DHT22;6344;49.932;8.308;2022-09-27T09:34:05;14.60;99.90
12557;DHT22;6344;49.932;8.308;2022-09-27T09:36:40;14.20;99.90
12557;DHT22;6344;49.932;8.308;2022-09-27T09:39:12;14.10;99.90
12557;DHT22;6344;49.932;8.308;2022-09-27T09:41:42;13.80;99.90
12557;DHT22;6344;49.932;8.308;2022-09-27T09:44:16;13.50;99.90
12557;DHT22;6344;49.932;8.308;2022-09-27T09:46:47;13.30;99.90
12557;DHT22;6344;49.932;8.308;2022-09-27T09:49:18;13.30;99.90
12557;DHT22;6344;49.932;8.308;2022-09-27T09:51:49;13.60;99.90
12557;DHT22;6344;49.932;8.308;2022-09-27T09:54:22;14.70;99.90
12557;DHT22;6344;49.932;8.308;2022-09-27T09:56:57;15.60;99.90
12557;DHT22;6344;49.932;8.308;2022-09-27T09:59:28;16.30;99.90
12557;DHT22;6344;49.932;8.308;2022-09-27T10:02:09;15.70;99.90
12557;DHT22;6344;49.932;8.308;2022-09-27T10:04:39;15.10;99.90
12557;DHT22;6344;49.932;8.308;2022-09-27T10:07:07;14.90;99.90
12557;DHT22;6344;49.932;8.308;2022-09-27T10:09:34;14.60;99.90
12557;DHT22;6344;49.932;8.308;2022-09-27T10:12:01;14.50;99.90
12557;DHT22;6344;49.932;8.308;2022-09-27T10:14:28;14.50;99.90
12557;DHT22;6344;49.932;8.308;2022-09-27T10:16:59;14.30;99.90
12557;DHT22;6344;49.932;8.308;2022-09-27T10:19:29;14.20;99.90
12557;DHT22;6344;49.932;8.308;2022-09-27T10:22:00;14.00;99.90
12557;DHT22;6344;49.932;8.308;2022-09-27T10:24:27;14.20;99.90
12557;DHT22;6344;49.932;8.308;2022-09-27T10:26:58;14.00;99.90
12557;DHT22;6344;49.932;8.308;2022-09-27T10:29:29;14.10;99.90
12557;DHT22;6344;49.932;8.308;2022-09-27T10:31:59;14.10;99.90
12557;DHT22;6344;49.932;8.308;2022-09-27T10:34:31;14.00;99.90
12557;DHT22;6344;49.932;8.308;2022-09-27T10:37:05;14.10;99.90
12557;DHT22;6344;49.932;8.308;2022-09-27T10:39:32;14.10;99.90
12557;DHT22;6344;49.932;8.308;2022-09-27T10:41:59;14.20;99.90
12557;DHT22;6344;49.932;8.308;2022-09-27T10:44:27;14.10;99.90
12557;DHT22;6344;49.932;8.308;2022-09-27T10:46:55;14.10;99.90
12557;DHT22;6344;49.932;8.308;2022-09-27T10:49:27;14.20;99.90
12557;DHT22;6344;49.932;8.308;2022-09-27T10:51:56;14.10;99.90
12557;DHT22;6344;49.932;8.308;2022-09-27T10:54:26;14.20;99.90
12557;DHT22;6344;49.932;8.308;2022-09-27T10:56:55;14.30;99.90
12557;DHT22;6344;49.932;8.308;2022-09-27T10:59:23;14.30;99.90
12557;DHT22;6344;49.932;8.308;2022-09-27T11:01:51;14.70;99.90
12557;DHT22;6344;49.932;8.308;2022-09-27T11:04:22;14.60;99.90
12557;DHT22;6344;49.932;8.308;2022-09-27T11:06:50;14.50;99.90
12557;DHT22;6344;49.932;8.308;2022-09-27T11:09:20;14.20;99.90
12557;DHT22;6344;49.932;8.308;2022-09-27T11:12:04;14.50;99.90
12557;DHT22;6344;49.932;8.308;2022-09-27T11:14:33;14.60;99.90
12557;DHT22;6344;49.932;8.308;2022-09-27T11:17:09;14.60;99.90
12557;DHT22;6344;49.932;8.308;2022-09-27T11:19:48;14.70;99.90
12557;DHT22;6344;49.932;8.308;2022-09-27T11:22:31;14.60;99.90
12557;DHT22;6344;49.932;8.308;2022-09-27T11:25:09;14.70;99.90
12557;DHT22;6344;49.932;8.308;2022-09-27T11:27:47;14.80;99.90
12557;DHT22;6344;49.932;8.308;2022-09-27T11:30:19;14.90;99.90
12557;DHT22;6344;49.932;8.308;2022-09-27T11:33:02;15.10;99.90
12557;DHT22;6344;49.932;8.308;2022-09-27T11:35:41;15.30;99.90
12557;DHT22;6344;49.932;8.308;2022-09-27T11:38:17;15.20;99.90
12557;DHT22;6344;49.932;8.308;2022-09-27T11:41:15;15.40;99.90
12557;DHT22;6344;49.932;8.308;2022-09-27T11:44:00;15.60;1.00
12557;DHT22;6344;49.932;8.308;2022-09-27T11:46:31;15.50;99.90
12557;DHT22;6344;49.932;8.308;2022-09-27T11:49:12;15.40;99.90
12557;DHT22;6344;49.932;8.308;2022-09-27T11:51:53;15.50;99.90
12557;DHT22;6344;49.932;8.308;2022-09-27T11:54:41;15.40;99.90
12557;DHT22;6344;49.932;8.308;2022-09-27T11:57:17;15.10;1.00
12557;DHT22;6344;49.932;8.308;2022-09-27T12:00:03;15.10;99.90
12557;DHT22;6344;49.932;8.308;2022-09-27T12:02:50;15.30;99.90
12557;DHT22;6344;49.932;8.308;2022-09-27T12:05:24;15.30;99.90
12557;DHT22;6344;49.932;8.308;2022-09-27T12:08:08;15.10;99.90
12557;DHT22;6344;49.932;8.308;2022-09-27T12:10:41;15.30;1.00
12557;DHT22;6344;49.932;8.308;2022-09-27T12:13:13;15.60;1.00
12557;DHT22;6344;49.932;8.308;2022-09-27T12:15:43;15.90;95.30
12557;DHT22;6344;49.932;8.308;2022-09-27T12:18:14;16.00;99.90
12557;DHT22;6344;49.932;8.308;2022-09-27T12:20:42;15.90;99.90
12557;DHT22;6344;49.932;8.308;2022-09-27T12:23:14;16.00;99.90
12557;DHT22;6344;49.932;8.308;2022-09-27T12:25:47;15.60;99.90
12557;DHT22;6344;49.932;8.308;2022-09-27T12:28:21;15.00;1.00
12557;DHT22;6344;49.932;8.308;2022-09-27T12:30:56;14.80;1.00
12557;DHT22;6344;49.932;8.308;2022-09-27T12:33:29;14.80;99.90
12557;DHT22;6344;49.932;8.308;2022-09-27T12:36:01;14.50;99.90
12557;DHT22;6344;49.932;8.308;2022-09-27T12:38:36;14.30;99.90
12557;DHT22;6344;49.932;8.308;2022-09-27T12:41:07;13.90;99.90
12557;DHT22;6344;49.932;8.308;2022-09-27T12:43:37;13.40;99.90
12557;DHT22;6344;49.932;8.308;2022-09-27T12:46:12;13.00;99.90
12557;DHT22;6344;49.932;8.308;2022-09-27T12:48:46;12.60;99.90
12557;DHT22;6344;49.932;8.308;2022-09-27T12:51:17;12.70;99.90
12557;DHT22;6344;49.932;8.308;2022-09-27T12:53:58;12.80;1.00
12557;DHT22;6344;49.932;8.308;2022-09-27T12:56:39;12.90;1.00
12557;DHT22;6344;49.932;8.308;2022-09-27T12:59:45;13.10;99.90
12557;DHT22;6344;49.932;8.308;2022-09-27T13:02:31;13.20;99.90
12557;DHT22;6344;49.932;8.308;2022-09-27T13:05:15;13.10;99.90
12557;DHT22;6344;49.932;8.308;2022-09-27T13:07:58;13.40;99.90
12557;DHT22;6344;49.932;8.308;2022-09-27T13:10:48;13.10;99.90
12557;DHT22;6344;49.932;8.308;2022-09-27T13:13:21;12.60;99.90
12557;DHT22;6344;49.932;8.308;2022-09-27T13:15:55;12.80;99.90
12557;DHT22;6344;49.932;8.308;2022-09-27T13:18:51;12.70;99.90
12557;DHT22;6344;49.932;8.308;2022-09-27T13:21:55;12.70;99.90
12557;DHT22;6344;49.932;8.308;2022-09-27T13:24:41;12.30;1.00
12557;DHT22;6344;49.932;8.308;2022-09-27T13:27:34;12.10;99.90
12557;DHT22;6344;49.932;8.308;2022-09-27T13:33:40;11.90;1.00
12557;DHT22;6344;49.932;8.308;2022-09-27T13:36:24;12.10;99.90
12557;DHT22;6344;49.932;8.308;2022-09-27T13:39:16;12.50;99.90
12557;DHT22;6344;49.932;8.308;2022-09-27T13:41:59;12.80;69.50
12557;DHT22;6344;49.932;8.308;2022-09-27T13:44:37;13.10;1.00
12557;DHT22;6344;49.932;8.308;2022-09-27T13:47:19;13.50;1.00
12557;DHT22;6344;49.932;8.308;2022-09-27T13:49:56;13.60;99.90
12557;DHT22;6344;49.932;8.308;2022-09-27T13:52:27;14.10;1.00
12557;DHT22;6344;49.932;8.308;2022-09-27T13:55:00;14.50;99.90
12557;DHT22;6344;49.932;8.308;2022-09-27T13:57:50;14.90;99.90
12557;DHT22;6344;49.932;8.308;2022-09-27T14:00:20;14.80;99.90
12557;DHT22;6344;49.932;8.308;2022-09-27T14:02:57;15.00;99.90
12557;DHT22;6344;49.932;8.308;2022-09-27T14:05:31;15.40;99.90
12557;DHT22;6344;49.932;8.308;2022-09-27T14:08:01;15.90;99.90
12557;DHT22;6344;49.932;8.308;2022-09-27T14:10:29;15.70;99.90
12557;DHT22;6344;49.932;8.308;2022-09-27T14:12:58;15.70;99.90
12557;DHT22;6344;49.932;8.308;2022-09-27T14:15:27;15.30;99.90
12557;DHT22;6344;49.932;8.308;2022-09-27T14:17:56;15.10;99.90
12557;DHT22;6344;49.932;8.308;2022-09-27T14:20:38;15.00;99.90
12557;DHT22;6344;49.932;8.308;2022-09-27T14:23:15;14.80;99.90
12557;DHT22;6344;49.932;8.308;2022-09-27T14:25:44;14.80;99.90
12557;DHT22;6344;49.932;8.308;2022-09-27T14:28:19;14.90;99.90
12557;DHT22;6344;49.932;8.308;2022-09-27T14:30:46;14.70;99.90
12557;DHT22;6344;49.932;8.308;2022-09-27T14:33:27;14.30;99.90
12557;DHT22;6344;49.932;8.308;2022-09-27T14:35:56;14.10;99.90
12557;DHT22;6344;49.932;8.308;2022-09-27T14:38:41;13.60;99.90
12557;DHT22;6344;49.932;8.308;2022-09-27T14:41:08;12.80;99.90
12557;DHT22;6344;49.932;8.308;2022-09-27T14:43:40;12.10;1.00
12557;DHT22;6344;49.932;8.308;2022-09-27T14:46:24;12.00;99.90
12557;DHT22;6344;49.932;8.308;2022-09-27T14:48:51;11.40;99.90
12557;DHT22;6344;49.932;8.308;2022-09-27T14:51:26;11.30;99.90
12557;DHT22;6344;49.932;8.308;2022-09-27T14:53:54;11.20;99.90
12557;DHT22;6344;49.932;8.308;2022-09-27T14:56:25;11.00;99.90
12557;DHT22;6344;49.932;8.308;2022-09-27T14:58:54;10.90;99.90
12557;DHT22;6344;49.932;8.308;2022-09-27T15:01:27;10.90;99.90
12557;DHT22;6344;49.932;8.308;2022-09-27T15:03:55;10.90;99.90
12557;DHT22;6344;49.932;8.308;2022-09-27T15:06:23;11.00;99.90
12557;DHT22;6344;49.932;8.308;2022-09-27T15:08:50;11.10;99.90
12557;DHT22;6344;49.932;8.308;2022-09-27T15:11:18;11.20;99.90
12557;DHT22;6344;49.932;8.308;2022-09-27T15:13:48;11.30;1.00
12557;DHT22;6344;49.932;8.308;2022-09-27T15:16:18;11.10;99.90
12557;DHT22;6344;49.932;8.308;2022-09-27T15:18:47;11.00;1.00
12557;DHT22;6344;49.932;8.308;2022-09-27T15:21:28;11.10;99.90
12557;DHT22;6344;49.932;8.308;2022-09-27T15:23:55;11.10;1.00
12557;DHT22;6344;49.932;8.308;2022-09-27T15:26:26;11.20;1.00
12557;DHT22;6344;49.932;8.308;2022-09-27T15:29:00;11.20;99.90
12557;DHT22;6344;49.932;8.308;2022-09-27T15:31:31;11.20;1.00
12557;DHT22;6344;49.932;8.308;2022-09-27T15:33:59;11.10;99.90
12557;DHT22;6344;49.932;8.308;2022-09-27T15:36:53;11.20;99.90
12557;DHT22;6344;49.932;8.308;2022-09-27T15:39:27;11.50;99.90
12557;DHT22;6344;49.932;8.308;2022-09-27T15:42:03;11.60;95.60
12557;DHT22;6344;49.932;8.308;2022-09-27T15:44:37;11.70;99.90
12557;DHT22;6344;49.932;8.308;2022-09-27T15:47:04;12.00;1.00
12557;DHT22;6344;49.932;8.308;2022-09-27T15:49:31;12.20;99.90
12557;DHT22;6344;49.932;8.308;2022-09-27T15:52:01;12.10;99.90
12557;DHT22;6344;49.932;8.308;2022-09-27T15:54:30;11.90;97.70
12557;DHT22;6344;49.932;8.308;2022-09-27T15:57:01;11.70;99.90
12557;DHT22;6344;49.932;8.308;2022-09-27T15:59:31;11.70;1.00
12557;DHT22;6344;49.932;8.308;2022-09-27T16:02:00;11.60;1.00
12557;DHT22;6344;49.932;8.308;2022-09-27T16:04:28;11.60;99.90
12557;DHT22;6344;49.932;8.308;2022-09-27T16:06:57;11.60;99.90
12557;DHT22;6344;49.932;8.308;2022-09-27T16:09:26;11.60;99.90
12557;DHT22;6344;49.932;8.308;2022-09-27T16:11:53;11.70;1.00
12557;DHT22;6344;49.932;8.308;2022-09-27T16:14:20;11.60;93.60
12557;DHT22;6344;49.932;8.308;2022-09-27T16:16:48;11.60;99.90
12557;DHT22;6344;49.932;8.308;2022-09-27T16:19:16;11.50;99.90
12557;DHT22;6344;49.932;8.308;2022-09-27T16:21:43;11.40;99.90